createdAt,value
2017-05-25T00:01:49.888Z,19.74
2017-05-25T00:04:18.166Z,23.82
2017-05-25T00:06:46.431Z,20.40
2017-05-25T00:09:14.699Z,19.96
2017-05-25T00:11:42.963Z,20.66
2017-05-25T00:14:11.235Z,20.22
2017-05-25T00:16:39.502Z,21.54
2017-05-25T00:19:07.779Z,21.44
2017-05-25T00:21:36.035Z,24.00
2017-05-25T00:24:04.289Z,21.20
2017-05-25T00:26:32.571Z,19.94
2017-05-25T00:29:00.827Z,22.44
2017-05-25T00:31:29.105Z,21.86
2017-05-25T00:33:57.365Z,21.32
2017-05-25T00:36:25.639Z,23.54
2017-05-25T00:38:53.898Z,21.70
2017-05-25T00:41:22.174Z,22.52
2017-05-25T00:43:50.422Z,21.10
2017-05-25T00:46:18.696Z,20.76
2017-05-25T00:48:46.952Z,23.96
2017-05-25T00:51:15.226Z,22.52
2017-05-25T00:53:43.486Z,23.88
2017-05-25T00:56:11.767Z,21.80
2017-05-25T00:58:40.875Z,20.54
2017-05-25T01:01:09.177Z,23.10
2017-05-25T01:03:37.423Z,21.26
2017-05-25T01:06:05.682Z,21.04
2017-05-25T01:08:33.955Z,24.16
2017-05-25T01:11:02.210Z,21.60
2017-05-25T01:13:30.476Z,26.44
2017-05-25T01:15:58.731Z,21.74
2017-05-25T01:18:27.008Z,20.88
2017-05-25T01:20:55.259Z,20.48
2017-05-25T01:23:23.542Z,23.12
2017-05-25T01:25:51.799Z,22.36
2017-05-25T01:28:20.079Z,26.46
2017-05-25T01:30:48.339Z,22.86
2017-05-25T01:33:16.613Z,23.52
2017-05-25T01:35:44.866Z,21.88
2017-05-25T01:38:13.175Z,21.70
2017-05-25T01:40:41.426Z,20.60
2017-05-25T01:43:09.682Z,20.58
2017-05-25T01:45:37.960Z,21.52
2017-05-25T01:48:05.446Z,22.20
2017-05-25T01:50:33.711Z,21.16
2017-05-25T01:53:01.962Z,24.52
2017-05-25T01:55:30.232Z,21.66
2017-05-25T01:57:58.479Z,21.00
2017-05-25T02:00:26.746Z,21.82
2017-05-25T02:02:55.012Z,24.54
2017-05-25T02:05:23.301Z,21.02
2017-05-25T02:07:51.567Z,20.98
2017-05-25T02:10:19.838Z,22.66
2017-05-25T02:12:48.099Z,23.20
2017-05-25T02:15:16.397Z,20.24
2017-05-25T02:17:44.651Z,18.80
2017-05-25T02:20:12.911Z,20.58
2017-05-25T02:22:41.182Z,22.16
2017-05-25T02:25:09.443Z,21.06
2017-05-25T02:27:37.715Z,20.98
2017-05-25T02:30:05.975Z,28.18
2017-05-25T02:32:34.249Z,27.28
2017-05-25T02:35:02.508Z,22.08
2017-05-25T02:37:30.775Z,18.90
2017-05-25T02:39:59.035Z,22.92
2017-05-25T02:42:27.310Z,22.40
2017-05-25T02:44:55.575Z,24.52
2017-05-25T02:47:23.847Z,24.28
2017-05-25T02:49:52.105Z,23.32
2017-05-25T02:52:20.372Z,23.08
2017-05-25T02:54:48.627Z,24.94
2017-05-25T02:57:16.908Z,27.50
2017-05-25T02:59:45.169Z,24.68
2017-05-25T03:02:13.456Z,21.96
2017-05-25T03:04:41.727Z,23.10
2017-05-25T03:07:10.000Z,24.82
2017-05-25T03:09:38.259Z,24.10
2017-05-25T03:12:06.519Z,23.80
2017-05-25T03:14:34.801Z,24.28
2017-05-25T03:17:03.059Z,27.94
2017-05-25T03:19:32.151Z,25.84
2017-05-25T03:22:00.410Z,26.38
2017-05-25T03:24:28.683Z,26.92
2017-05-25T03:26:56.946Z,25.64
2017-05-25T03:29:25.231Z,27.08
2017-05-25T03:31:53.488Z,27.50
2017-05-25T03:34:21.749Z,26.98
2017-05-25T03:36:50.026Z,29.88
2017-05-25T03:39:18.285Z,30.66
2017-05-25T03:41:46.567Z,28.48
2017-05-25T03:44:14.822Z,30.30
2017-05-25T03:46:43.095Z,32.24
2017-05-25T03:49:11.361Z,31.56
2017-05-25T03:51:39.637Z,31.12
2017-05-25T03:54:07.897Z,32.16
2017-05-25T03:56:36.170Z,32.30
2017-05-25T03:59:04.434Z,32.94
2017-05-25T04:01:32.711Z,30.36
2017-05-25T04:04:00.968Z,33.16
2017-05-25T04:06:29.228Z,31.64
2017-05-25T04:08:57.499Z,35.38
2017-05-25T04:11:25.752Z,32.80
2017-05-25T04:13:54.034Z,33.08
2017-05-25T04:16:22.286Z,33.70
2017-05-25T04:18:50.562Z,29.50
2017-05-25T04:21:18.820Z,29.70
2017-05-25T04:23:47.100Z,30.02
2017-05-25T04:26:15.359Z,30.06
2017-05-25T04:28:43.641Z,31.34
2017-05-25T04:31:11.890Z,29.96
2017-05-25T04:33:40.490Z,26.68
2017-05-25T04:36:08.743Z,25.66
2017-05-25T04:38:37.026Z,26.58
2017-05-25T04:41:05.287Z,31.64
2017-05-25T04:43:33.559Z,25.94
2017-05-25T04:46:01.818Z,25.50
2017-05-25T04:48:30.095Z,25.46
2017-05-25T04:50:58.351Z,25.14
2017-05-25T04:53:26.605Z,21.92
2017-05-25T04:55:54.875Z,23.76
2017-05-25T04:58:23.134Z,23.26
2017-05-25T05:00:51.415Z,23.48
2017-05-25T05:03:19.670Z,19.86
2017-05-25T05:05:47.935Z,21.24
2017-05-25T05:08:16.187Z,20.18
2017-05-25T05:10:45.386Z,23.42
2017-05-25T05:13:13.647Z,17.36
2017-05-25T05:15:41.930Z,18.30
2017-05-25T05:18:10.188Z,19.12
2017-05-25T05:20:38.471Z,18.12
2017-05-25T05:23:06.739Z,19.66
2017-05-25T05:25:35.014Z,17.92
2017-05-25T05:28:03.282Z,16.30
2017-05-25T05:30:31.561Z,16.34
2017-05-25T05:32:59.827Z,16.26
2017-05-25T05:35:28.088Z,14.20
2017-05-25T05:37:56.380Z,14.66
2017-05-25T05:40:24.647Z,13.36
2017-05-25T05:42:52.924Z,14.96
2017-05-25T05:45:21.183Z,12.90
2017-05-25T05:47:49.459Z,13.10
2017-05-25T05:50:17.715Z,12.64
2017-05-25T05:52:45.229Z,12.88
2017-05-25T05:55:13.479Z,12.68
2017-05-25T05:57:41.743Z,10.60
2017-05-25T06:00:10.003Z,10.12
2017-05-25T06:02:38.288Z,9.58
2017-05-25T06:05:06.542Z,9.64
2017-05-25T06:07:34.803Z,9.90
2017-05-25T06:10:03.079Z,9.58
2017-05-25T06:12:31.328Z,9.48
2017-05-25T06:14:59.599Z,9.14
2017-05-25T06:17:27.850Z,9.24
2017-05-25T06:19:56.107Z,9.64
2017-05-25T06:22:24.359Z,9.88
2017-05-25T06:24:52.634Z,9.24
2017-05-25T06:27:21.863Z,8.62
2017-05-25T06:29:50.143Z,12.82
2017-05-25T06:32:18.495Z,11.88
2017-05-25T06:34:46.747Z,9.94
2017-05-25T06:37:15.014Z,8.76
2017-05-25T06:39:43.260Z,9.36
2017-05-25T06:42:11.523Z,10.14
2017-05-25T06:44:39.783Z,10.54
2017-05-25T06:47:08.154Z,10.26
2017-05-25T06:49:36.410Z,9.02
2017-05-25T06:52:04.682Z,10.60
2017-05-25T06:54:32.930Z,10.02
2017-05-25T06:57:01.194Z,10.82
2017-05-25T06:59:29.443Z,10.44
2017-05-25T07:01:57.716Z,13.26
2017-05-25T07:04:25.974Z,13.08
2017-05-25T07:06:54.226Z,12.66
2017-05-25T07:09:22.503Z,13.38
2017-05-25T07:11:50.758Z,11.66
2017-05-25T07:14:19.027Z,12.82
2017-05-25T07:16:47.283Z,13.58
2017-05-25T07:19:15.555Z,12.20
2017-05-25T07:21:43.806Z,12.32
2017-05-25T07:24:12.075Z,12.62
2017-05-25T07:26:40.331Z,12.20
2017-05-25T07:29:08.595Z,11.74
2017-05-25T07:31:36.879Z,11.22
2017-05-25T07:34:05.151Z,12.68
2017-05-25T07:36:33.396Z,12.46
2017-05-25T07:39:02.570Z,15.04
2017-05-25T07:41:30.826Z,11.60
2017-05-25T07:43:59.074Z,14.90
2017-05-25T07:46:27.347Z,15.06
2017-05-25T07:48:55.595Z,13.76
2017-05-25T07:51:23.864Z,14.34
2017-05-25T07:53:52.123Z,16.40
2017-05-25T07:56:20.391Z,14.78
2017-05-25T07:58:48.651Z,17.08
2017-05-25T08:01:16.923Z,16.64
2017-05-25T08:03:45.177Z,16.52
2017-05-25T08:06:13.452Z,20.24
2017-05-25T08:08:41.703Z,15.38
2017-05-25T08:11:09.977Z,13.66
2017-05-25T08:13:38.229Z,15.66
2017-05-25T08:16:06.503Z,11.92
2017-05-25T08:18:34.755Z,12.12
2017-05-25T08:21:03.001Z,11.72
2017-05-25T08:23:31.276Z,10.52
2017-05-25T08:25:59.526Z,9.50
2017-05-25T08:28:27.791Z,10.38
2017-05-25T08:30:56.083Z,9.38
2017-05-25T08:33:24.347Z,10.14
2017-05-25T08:35:52.593Z,9.34
2017-05-25T08:38:20.861Z,7.38
2017-05-25T08:40:49.107Z,9.56
2017-05-25T08:43:17.387Z,9.28
2017-05-25T08:45:45.642Z,7.40
2017-05-25T08:48:13.911Z,10.32
2017-05-25T08:50:42.163Z,11.66
2017-05-25T08:53:10.430Z,8.34
2017-05-25T08:55:38.674Z,7.38
2017-05-25T08:58:06.959Z,6.80
2017-05-25T09:00:35.215Z,11.68
2017-05-25T09:03:03.463Z,9.54
2017-05-25T09:05:32.570Z,8.40
2017-05-25T09:08:00.842Z,6.66
2017-05-25T09:10:29.108Z,5.36
2017-05-25T09:12:57.365Z,6.22
2017-05-25T09:15:25.650Z,7.88
2017-05-25T09:17:53.901Z,5.92
2017-05-25T09:20:21.403Z,9.34
2017-05-25T09:22:49.656Z,7.36
2017-05-25T09:25:17.927Z,6.08
2017-05-25T09:27:46.176Z,6.14
2017-05-25T09:30:14.441Z,7.06
2017-05-25T09:32:42.697Z,6.62
2017-05-25T09:35:10.974Z,7.96
2017-05-25T09:37:39.216Z,6.02
2017-05-25T09:40:07.488Z,6.28
2017-05-25T09:42:36.170Z,8.80
2017-05-25T09:45:04.439Z,7.48
2017-05-25T09:47:32.683Z,6.42
2017-05-25T09:50:00.966Z,5.70
2017-05-25T09:52:29.215Z,6.08
2017-05-25T09:54:57.475Z,7.66
2017-05-25T09:57:25.726Z,6.52
2017-05-25T09:59:54.019Z,5.96
2017-05-25T10:02:22.360Z,7.26
2017-05-25T10:04:50.604Z,5.58
2017-05-25T10:07:18.870Z,8.62
2017-05-25T10:09:47.123Z,5.88
2017-05-25T10:12:15.395Z,7.62
2017-05-25T10:14:43.636Z,7.76
2017-05-25T10:17:11.915Z,8.58
2017-05-25T10:19:40.164Z,5.42
2017-05-25T10:22:08.439Z,6.84
2017-05-25T10:24:36.690Z,5.64
2017-05-25T10:27:04.955Z,5.40
2017-05-25T10:29:33.567Z,4.76
2017-05-25T10:32:01.843Z,5.96
2017-05-25T10:34:30.099Z,8.64
2017-05-25T10:36:58.357Z,4.96
2017-05-25T10:39:27.338Z,5.32
2017-05-25T10:41:55.601Z,4.82
2017-05-25T10:44:23.872Z,4.52
2017-05-25T10:46:52.136Z,6.00
2017-05-25T10:49:20.406Z,6.44
2017-05-25T10:51:49.070Z,4.54
2017-05-25T10:54:17.336Z,11.18
2017-05-25T10:56:45.595Z,5.22
2017-05-25T10:59:13.859Z,5.52
2017-05-25T11:01:42.107Z,4.14
2017-05-25T11:04:10.391Z,4.00
2017-05-25T11:06:38.639Z,5.90
2017-05-25T11:09:06.891Z,6.04
2017-05-25T11:11:35.163Z,4.22
2017-05-25T11:14:03.432Z,2.16
2017-05-25T11:16:31.887Z,2.76
2017-05-25T11:19:00.146Z,2.14
2017-05-25T11:21:28.411Z,3.66
2017-05-25T11:23:56.663Z,2.34
2017-05-25T11:26:24.984Z,2.20
2017-05-25T11:28:53.230Z,2.38
2017-05-25T11:31:21.507Z,2.34
2017-05-25T11:33:49.763Z,2.92
2017-05-25T11:36:18.009Z,2.36
2017-05-25T11:38:46.283Z,2.98
2017-05-25T11:41:14.543Z,4.44
2017-05-25T11:43:42.905Z,2.30
2017-05-25T11:46:11.158Z,2.26
2017-05-25T11:48:39.427Z,1.94
2017-05-25T11:51:07.667Z,5.06
2017-05-25T11:53:35.938Z,3.32
2017-05-25T11:56:04.192Z,6.14
2017-05-25T11:58:32.464Z,2.52
2017-05-25T12:01:00.716Z,2.14
2017-05-25T12:03:28.987Z,2.40
2017-05-25T12:05:57.236Z,2.10
2017-05-25T12:08:25.491Z,2.10
2017-05-25T12:10:53.758Z,2.30
2017-05-25T12:13:21.240Z,4.02
2017-05-25T12:15:49.507Z,5.50
2017-05-25T12:18:17.755Z,3.06
2017-05-25T12:20:46.033Z,1.90
2017-05-25T12:23:14.275Z,2.46
2017-05-25T12:25:42.547Z,2.20
2017-05-25T12:28:10.838Z,2.20
2017-05-25T12:30:39.107Z,2.68
2017-05-25T12:33:07.354Z,2.72
2017-05-25T12:35:35.603Z,2.64
2017-05-25T12:38:03.888Z,3.12
2017-05-25T12:40:32.129Z,2.10
2017-05-25T12:43:00.395Z,2.88
2017-05-25T12:45:28.642Z,3.20
2017-05-25T12:47:56.911Z,5.04
2017-05-25T12:50:25.147Z,1.90
2017-05-25T12:52:53.417Z,2.78
2017-05-25T12:55:21.689Z,1.66
2017-05-25T12:57:49.951Z,2.42
2017-05-25T13:00:18.198Z,2.42
2017-05-25T13:02:46.447Z,2.12
2017-05-25T13:05:14.714Z,3.10
2017-05-25T13:07:42.963Z,2.40
2017-05-25T13:10:11.227Z,3.66
2017-05-25T13:12:39.481Z,2.62
2017-05-25T13:15:07.750Z,2.00
2017-05-25T13:17:35.994Z,3.14
2017-05-25T13:20:04.320Z,1.86
2017-05-25T13:22:32.558Z,2.56
2017-05-25T13:25:00.831Z,1.74
2017-05-25T13:27:29.079Z,2.30
2017-05-25T13:29:57.340Z,1.74
2017-05-25T13:32:25.597Z,2.16
2017-05-25T13:34:53.877Z,2.56
2017-05-25T13:37:22.122Z,2.64
2017-05-25T13:39:50.380Z,2.22
2017-05-25T13:42:18.679Z,2.16
2017-05-25T13:44:46.925Z,1.90
2017-05-25T13:47:15.193Z,1.96
2017-05-25T13:49:43.445Z,1.68
2017-05-25T13:54:49.164Z,2.76
2017-05-25T13:57:17.418Z,2.00
2017-05-25T13:59:45.668Z,2.12
2017-05-25T14:02:13.935Z,2.10
2017-05-25T14:04:42.187Z,2.62
2017-05-25T14:07:10.453Z,2.02
2017-05-25T14:09:38.703Z,2.00
2017-05-25T14:12:06.943Z,1.90
2017-05-25T14:14:35.213Z,1.80
2017-05-25T14:17:03.468Z,2.06
2017-05-25T14:19:31.730Z,1.72
2017-05-25T14:22:00.002Z,2.40
2017-05-25T14:24:28.275Z,1.98
2017-05-25T14:26:56.522Z,2.08
2017-05-25T14:29:24.793Z,1.90
2017-05-25T14:31:53.039Z,1.80
2017-05-25T14:34:21.299Z,1.86
2017-05-25T14:36:49.540Z,2.70
2017-05-25T14:39:17.796Z,2.12
2017-05-25T14:41:46.061Z,2.02
2017-05-25T14:44:14.313Z,1.98
2017-05-25T14:46:42.578Z,1.76
2017-05-25T14:49:10.831Z,2.06
2017-05-25T14:51:39.096Z,1.90
2017-05-25T14:54:07.340Z,2.10
2017-05-25T14:56:35.603Z,2.00
2017-05-25T14:59:03.847Z,2.96
2017-05-25T15:01:32.127Z,3.26
2017-05-25T15:04:00.371Z,2.30
2017-05-25T15:06:27.863Z,1.84
2017-05-25T15:08:56.135Z,1.64
2017-05-25T15:11:24.386Z,1.68
2017-05-25T15:13:52.653Z,2.04
2017-05-25T15:16:20.898Z,1.52
2017-05-25T15:18:49.161Z,2.24
2017-05-25T15:21:17.407Z,1.88
2017-05-25T15:23:45.665Z,2.02
2017-05-25T15:26:13.934Z,1.64
2017-05-25T15:28:42.213Z,2.98
2017-05-25T15:31:10.476Z,3.72
2017-05-25T15:33:38.849Z,1.38
2017-05-25T15:36:07.090Z,1.80
2017-05-25T15:38:35.355Z,1.44
2017-05-25T15:41:03.597Z,1.44
2017-05-25T15:43:31.847Z,2.06
2017-05-25T15:46:00.146Z,1.86
2017-05-25T15:48:28.395Z,2.34
2017-05-25T15:50:56.659Z,3.24
2017-05-25T15:53:24.903Z,1.90
2017-05-25T15:55:53.163Z,1.80
2017-05-25T15:58:21.416Z,3.40
2017-05-25T16:00:49.707Z,2.04
2017-05-25T16:03:17.948Z,2.20
2017-05-25T16:05:46.810Z,2.74
2017-05-25T16:08:15.059Z,2.62
2017-05-25T16:10:43.325Z,1.84
2017-05-25T16:13:11.573Z,2.40
2017-05-25T16:15:39.849Z,1.90
2017-05-25T16:18:08.100Z,1.64
2017-05-25T16:20:36.352Z,1.92
2017-05-25T16:23:05.410Z,3.92
2017-05-25T16:25:33.658Z,5.34
2017-05-25T16:28:01.959Z,1.80
2017-05-25T16:30:30.199Z,3.60
2017-05-25T16:32:58.473Z,2.24
2017-05-25T16:35:26.719Z,2.38
2017-05-25T16:37:54.983Z,2.00
2017-05-25T16:40:23.239Z,2.40
2017-05-25T16:42:51.502Z,1.96
2017-05-25T16:45:19.742Z,2.14
2017-05-25T16:47:47.998Z,2.74
2017-05-25T16:50:16.240Z,1.90
2017-05-25T16:52:44.496Z,2.34
2017-05-25T16:55:12.759Z,5.72
2017-05-25T16:57:41.007Z,3.58
2017-05-25T17:00:09.266Z,5.62
2017-05-25T17:02:37.511Z,4.54
2017-05-25T17:05:05.775Z,4.20
2017-05-25T17:07:34.019Z,4.22
2017-05-25T17:10:02.291Z,2.70
2017-05-25T17:12:30.542Z,4.96
2017-05-25T17:14:58.832Z,3.84
2017-05-25T17:17:27.085Z,3.26
2017-05-25T17:19:55.343Z,3.06
2017-05-25T17:22:23.634Z,2.98
2017-05-25T17:24:51.905Z,3.02
2017-05-25T17:27:20.171Z,2.90
2017-05-25T17:29:48.439Z,5.62
2017-05-25T17:32:16.698Z,4.82
2017-05-25T17:34:44.949Z,3.70
2017-05-25T17:37:13.333Z,4.60
2017-05-25T17:39:41.574Z,3.58
2017-05-25T17:42:09.816Z,6.18
2017-05-25T17:44:38.088Z,34.82
2017-05-25T17:47:06.347Z,10.00
2017-05-25T17:49:34.627Z,5.90
2017-05-25T17:52:02.867Z,3.52
2017-05-25T17:54:31.164Z,3.88
2017-05-25T17:56:59.406Z,3.02
2017-05-25T17:59:27.693Z,3.26
2017-05-25T18:01:55.948Z,3.86
2017-05-25T18:04:24.237Z,3.78
2017-05-25T18:06:52.486Z,2.90
2017-05-25T18:09:20.744Z,7.54
2017-05-25T18:11:49.028Z,3.50
2017-05-25T18:14:17.305Z,3.84
2017-05-25T18:16:45.586Z,3.96
2017-05-25T18:19:13.092Z,3.80
2017-05-25T18:21:41.376Z,5.38
2017-05-25T18:24:08.872Z,29.74
2017-05-25T18:26:37.145Z,4.90
2017-05-25T18:29:04.795Z,3.56
2017-05-25T18:31:33.196Z,3.14
2017-05-25T18:34:00.879Z,2.96
2017-05-25T18:36:29.260Z,3.32
2017-05-25T18:38:56.851Z,3.98
2017-05-25T18:41:25.232Z,4.26
2017-05-25T18:43:53.633Z,3.90
2017-05-25T18:46:21.876Z,3.00
2017-05-25T18:48:50.143Z,4.42
2017-05-25T18:51:18.384Z,4.62
2017-05-25T18:53:46.648Z,3.90
2017-05-25T18:56:15.739Z,3.02
2017-05-25T18:58:44.002Z,4.58
2017-05-25T19:01:11.487Z,3.62
2017-05-25T19:03:39.776Z,9.68
2017-05-25T19:06:08.019Z,3.42
2017-05-25T19:08:36.271Z,3.98
2017-05-25T19:11:04.547Z,5.02
2017-05-25T19:13:32.803Z,3.06
2017-05-25T19:16:01.062Z,4.10
2017-05-25T19:18:29.323Z,2.86
2017-05-25T19:20:57.788Z,3.66
2017-05-25T19:23:26.133Z,3.58
2017-05-25T19:25:54.529Z,4.22
2017-05-25T19:28:22.785Z,3.12
2017-05-25T19:30:51.051Z,3.20
2017-05-25T19:33:19.310Z,3.30
2017-05-25T19:35:47.582Z,3.32
2017-05-25T19:38:15.839Z,4.90
2017-05-25T19:40:44.095Z,3.30
2017-05-25T19:43:11.787Z,3.54
2017-05-25T19:45:40.092Z,3.26
2017-05-25T19:48:08.356Z,3.58
2017-05-25T19:50:35.843Z,3.70
2017-05-25T19:53:04.121Z,4.36
2017-05-25T19:55:32.376Z,4.00
2017-05-25T19:58:00.642Z,3.44
2017-05-25T20:00:28.889Z,5.22
2017-05-25T20:02:57.164Z,8.32
2017-05-25T20:05:25.420Z,3.86
2017-05-25T20:07:54.119Z,5.30
2017-05-25T20:10:22.383Z,3.96
2017-05-25T20:12:50.657Z,3.62
2017-05-25T20:15:18.903Z,3.02
2017-05-25T20:17:47.163Z,4.26
2017-05-25T20:20:15.410Z,3.36
2017-05-25T20:22:43.670Z,3.30
2017-05-25T20:25:12.951Z,3.88
2017-05-25T20:27:41.316Z,3.10
2017-05-25T20:30:09.563Z,3.64
2017-05-25T20:32:37.834Z,3.90
2017-05-25T20:35:06.087Z,5.44
2017-05-25T20:37:34.351Z,3.20
2017-05-25T20:40:02.607Z,5.00
2017-05-25T20:42:30.867Z,3.10
2017-05-25T20:44:59.140Z,3.04
2017-05-25T20:47:27.409Z,3.98
2017-05-25T20:49:55.679Z,4.52
2017-05-25T20:52:23.963Z,5.82
2017-05-25T20:54:52.236Z,3.80
2017-05-25T20:57:20.486Z,7.18
2017-05-25T20:59:48.758Z,5.30
2017-05-25T21:02:17.013Z,3.92
2017-05-25T21:04:45.488Z,3.96
2017-05-25T21:07:13.152Z,4.40
2017-05-25T21:09:41.544Z,3.98
2017-05-25T21:12:09.139Z,5.34
2017-05-25T21:14:37.623Z,3.98
2017-05-25T21:17:06.128Z,4.06
2017-05-25T21:19:33.702Z,4.04
2017-05-25T21:22:01.364Z,3.94
2017-05-25T21:24:28.956Z,4.32
2017-05-25T21:26:57.368Z,3.84
2017-05-25T21:29:24.952Z,4.28
2017-05-25T21:31:53.358Z,4.40
2017-05-25T21:34:21.715Z,4.78
2017-05-25T21:36:50.174Z,4.24
2017-05-25T21:39:17.916Z,3.72
2017-05-25T21:41:46.391Z,4.12
2017-05-25T21:44:13.995Z,6.88
2017-05-25T21:46:42.369Z,4.10
2017-05-25T21:49:10.800Z,4.28
2017-05-25T21:51:39.177Z,4.76
2017-05-25T21:54:07.609Z,3.70
2017-05-25T21:56:35.875Z,4.40
2017-05-25T21:59:04.145Z,4.76
2017-05-25T22:01:32.356Z,4.58
2017-05-25T22:04:00.739Z,4.20
2017-05-25T22:06:29.027Z,6.14
2017-05-25T22:08:57.712Z,3.88
2017-05-25T22:11:26.032Z,4.00
2017-05-25T22:13:54.419Z,4.74
2017-05-25T22:16:22.710Z,5.70
2017-05-25T22:18:51.011Z,4.40
2017-05-25T22:21:19.396Z,4.90
2017-05-25T22:23:47.790Z,6.42
2017-05-25T22:26:15.387Z,4.38
2017-05-25T22:28:43.049Z,4.66
2017-05-25T22:31:11.399Z,4.18
2017-05-25T22:33:39.743Z,4.48
2017-05-25T22:36:08.096Z,4.48
2017-05-25T22:38:36.444Z,4.52
2017-05-25T22:41:04.826Z,6.66
2017-05-25T22:43:33.126Z,4.26
2017-05-25T22:46:01.535Z,4.14
2017-05-25T22:48:29.914Z,5.74
2017-05-25T22:50:57.491Z,5.56
2017-05-25T22:53:25.887Z,4.82
2017-05-25T22:55:54.186Z,4.06
2017-05-25T22:58:22.574Z,6.12
2017-05-25T23:00:50.896Z,4.80
2017-05-25T23:03:18.586Z,4.32
2017-05-25T23:05:46.955Z,4.52
2017-05-25T23:08:15.333Z,4.34
2017-05-25T23:10:43.651Z,4.62
2017-05-25T23:13:12.775Z,4.84
2017-05-25T23:15:41.147Z,4.88
2017-05-25T23:18:09.541Z,5.36
2017-05-25T23:20:37.133Z,5.26
2017-05-25T23:23:05.516Z,5.02
2017-05-25T23:25:33.811Z,5.60
2017-05-25T23:28:02.119Z,5.20
2017-05-25T23:30:30.506Z,5.46
2017-05-25T23:32:58.895Z,4.86
2017-05-25T23:35:27.211Z,4.98
2017-05-25T23:37:55.582Z,4.64
2017-05-25T23:40:23.174Z,5.40
2017-05-25T23:42:51.467Z,4.94
2017-05-25T23:45:19.863Z,5.60
2017-05-25T23:47:48.244Z,5.78
2017-05-25T23:50:16.651Z,5.32
2017-05-25T23:52:44.951Z,5.06
2017-05-25T23:55:13.337Z,5.32
2017-05-25T23:57:41.642Z,4.96
